createdAt,value
2017-06-08T00:01:03.177Z,13.00
2017-06-08T00:03:34.673Z,12.90
2017-06-08T00:06:06.201Z,13.00
2017-06-08T00:08:37.684Z,13.00
2017-06-08T00:11:09.206Z,13.00
2017-06-08T00:13:41.457Z,13.10
2017-06-08T00:16:12.957Z,13.10
2017-06-08T00:18:44.560Z,13.10
2017-06-08T00:21:16.085Z,13.10
2017-06-08T00:23:47.649Z,13.00
2017-06-08T00:26:19.162Z,13.00
2017-06-08T00:28:50.757Z,12.80
2017-06-08T00:31:22.270Z,12.70
2017-06-08T00:33:53.820Z,12.80
2017-06-08T00:36:25.301Z,12.80
2017-06-08T00:38:56.941Z,12.70
2017-06-08T00:41:28.457Z,12.70
2017-06-08T00:43:59.972Z,12.60
2017-06-08T00:46:31.486Z,12.50
2017-06-08T00:49:03.081Z,12.50
2017-06-08T00:51:34.598Z,12.50
2017-06-08T00:54:06.156Z,12.60
2017-06-08T00:56:37.673Z,12.60
2017-06-08T00:59:10.048Z,12.60
2017-06-08T01:01:42.257Z,12.50
2017-06-08T01:04:13.782Z,12.50
2017-06-08T01:06:46.039Z,12.40
2017-06-08T01:09:17.554Z,12.30
2017-06-08T01:11:49.101Z,12.30
2017-06-08T01:14:20.606Z,12.30
2017-06-08T01:16:52.389Z,12.20
2017-06-08T01:19:23.885Z,12.20
2017-06-08T01:21:55.429Z,12.20
2017-06-08T01:24:26.969Z,12.20
2017-06-08T01:26:58.497Z,12.20
2017-06-08T01:29:30.056Z,12.10
2017-06-08T01:32:01.552Z,12.00
2017-06-08T01:34:33.073Z,12.00
2017-06-08T01:37:04.597Z,12.10
2017-06-08T01:39:36.181Z,12.20
2017-06-08T01:42:07.689Z,11.90
2017-06-08T01:44:40.227Z,11.70
2017-06-08T01:47:11.761Z,11.70
2017-06-08T01:49:43.329Z,11.70
2017-06-08T01:52:14.854Z,11.60
2017-06-08T01:54:46.399Z,11.60
2017-06-08T01:57:17.930Z,11.70
2017-06-08T01:59:49.601Z,11.70
2017-06-08T02:02:21.146Z,11.70
2017-06-08T02:04:52.688Z,11.60
2017-06-08T02:07:24.221Z,11.50
2017-06-08T02:09:56.509Z,11.50
2017-06-08T02:12:28.014Z,11.50
2017-06-08T02:14:59.597Z,11.70
2017-06-08T02:17:31.064Z,11.80
2017-06-08T02:20:02.900Z,11.80
2017-06-08T02:22:34.433Z,11.80
2017-06-08T02:25:06.089Z,11.60
2017-06-08T02:27:37.596Z,11.30
2017-06-08T02:30:09.174Z,11.30
2017-06-08T02:32:40.702Z,11.10
2017-06-08T02:35:12.239Z,11.10
2017-06-08T02:37:43.769Z,11.10
2017-06-08T02:40:15.253Z,11.10
2017-06-08T02:42:47.089Z,11.10
2017-06-08T02:45:18.577Z,11.30
2017-06-08T02:47:50.092Z,11.50
2017-06-08T02:50:21.629Z,11.50
2017-06-08T02:52:53.173Z,11.50
2017-06-08T02:55:24.678Z,11.40
2017-06-08T02:57:56.217Z,11.50
2017-06-08T03:00:28.491Z,11.50
2017-06-08T03:02:54.937Z,11.50
2017-06-08T03:05:26.480Z,11.50
2017-06-08T03:07:57.988Z,11.50
2017-06-08T03:10:29.530Z,11.40
2017-06-08T03:13:01.813Z,11.30
2017-06-08T03:15:33.365Z,11.30
2017-06-08T03:18:04.926Z,11.30
2017-06-08T03:20:36.478Z,11.40
2017-06-08T03:23:07.957Z,11.50
2017-06-08T03:25:40.225Z,10.90
2017-06-08T03:28:11.752Z,10.90
2017-06-08T03:30:43.373Z,10.80
2017-06-08T03:33:14.860Z,10.90
2017-06-08T03:35:46.365Z,10.90
2017-06-08T03:38:17.929Z,10.90
2017-06-08T03:40:49.432Z,11.00
2017-06-08T03:43:21.005Z,11.10
2017-06-08T03:45:52.486Z,11.20
2017-06-08T03:48:24.054Z,11.10
2017-06-08T03:50:55.549Z,11.20
2017-06-08T03:53:27.818Z,10.90
2017-06-08T03:55:59.317Z,10.80
2017-06-08T03:58:30.849Z,10.80
2017-06-08T04:01:02.384Z,11.00
2017-06-08T04:03:34.613Z,11.30
2017-06-08T04:06:06.126Z,11.30
2017-06-08T04:08:37.646Z,11.40
2017-06-08T04:11:09.929Z,11.40
2017-06-08T04:13:41.401Z,11.40
2017-06-08T04:16:12.945Z,11.40
2017-06-08T04:18:44.460Z,11.50
2017-06-08T04:21:16.006Z,11.50
2017-06-08T04:23:47.481Z,11.60
2017-06-08T04:26:19.757Z,11.80
2017-06-08T04:28:52.013Z,11.70
2017-06-08T04:31:18.453Z,11.70
2017-06-08T04:33:50.768Z,11.70
2017-06-08T04:36:22.242Z,11.70
2017-06-08T04:38:53.765Z,11.70
2017-06-08T04:41:25.287Z,11.90
2017-06-08T04:43:56.870Z,11.90
2017-06-08T04:46:28.433Z,12.00
2017-06-08T04:48:59.953Z,12.00
2017-06-08T04:51:31.863Z,12.10
2017-06-08T04:54:03.555Z,12.10
2017-06-08T04:56:35.412Z,12.00
2017-06-08T04:59:06.901Z,12.00
2017-06-08T05:01:38.504Z,11.90
2017-06-08T05:04:10.013Z,11.90
2017-06-08T05:06:51.610Z,11.80
2017-06-08T05:09:23.121Z,12.00
2017-06-08T05:11:55.401Z,12.30
2017-06-08T05:14:41.796Z,12.30
2017-06-08T05:17:13.313Z,12.20
2017-06-08T05:19:44.849Z,12.20
2017-06-08T05:22:16.358Z,12.00
2017-06-08T05:24:47.934Z,12.10
2017-06-08T05:27:19.428Z,12.30
2017-06-08T05:29:50.946Z,12.20
2017-06-08T05:32:22.432Z,12.30
2017-06-08T05:34:53.937Z,12.30
2017-06-08T05:37:25.413Z,12.30
2017-06-08T05:39:56.950Z,12.10
2017-06-08T05:42:28.473Z,12.00
2017-06-08T05:45:00.009Z,11.90
2017-06-08T05:47:31.509Z,12.00
2017-06-08T05:50:03.062Z,12.00
2017-06-08T05:52:41.461Z,12.00
2017-06-08T05:55:12.981Z,12.20
2017-06-08T05:57:45.198Z,12.50
2017-06-08T06:00:16.758Z,12.50
2017-06-08T06:02:48.311Z,12.60
2017-06-08T06:05:19.792Z,12.70
2017-06-08T06:07:51.324Z,12.70
2017-06-08T06:10:22.838Z,12.70
2017-06-08T06:12:54.441Z,12.50
2017-06-08T06:15:25.954Z,12.60
2017-06-08T06:17:57.456Z,12.50
2017-06-08T06:20:29.011Z,12.60
2017-06-08T06:23:00.534Z,12.70
2017-06-08T06:25:32.054Z,12.60
2017-06-08T06:28:03.537Z,12.70
2017-06-08T06:30:35.106Z,12.90
2017-06-08T06:33:06.781Z,13.10
2017-06-08T06:35:38.293Z,13.20
2017-06-08T06:38:09.924Z,13.30
2017-06-08T06:40:41.441Z,13.30
2017-06-08T06:43:13.043Z,13.40
2017-06-08T06:45:44.516Z,13.50
2017-06-08T06:48:16.301Z,13.50
2017-06-08T06:50:47.818Z,13.40
2017-06-08T06:53:19.423Z,13.50
2017-06-08T06:55:57.870Z,13.50
2017-06-08T06:58:29.410Z,13.50
2017-06-08T07:01:00.925Z,13.60
2017-06-08T07:03:32.504Z,13.60
2017-06-08T07:06:03.965Z,13.60
2017-06-08T07:08:35.502Z,13.60
2017-06-08T07:11:07.042Z,13.60
2017-06-08T07:13:38.593Z,13.70
2017-06-08T07:16:10.133Z,13.80
2017-06-08T07:18:41.649Z,13.90
2017-06-08T07:21:13.225Z,14.00
2017-06-08T07:23:44.733Z,14.10
2017-06-08T07:26:16.330Z,14.20
2017-06-08T07:28:47.845Z,14.10
2017-06-08T07:31:19.349Z,14.20
2017-06-08T07:33:51.666Z,14.30
2017-06-08T07:36:23.486Z,14.30
2017-06-08T07:38:55.122Z,14.40
2017-06-08T07:41:26.653Z,14.40
2017-06-08T07:44:13.045Z,14.40
2017-06-08T07:46:44.613Z,14.50
2017-06-08T07:49:16.136Z,14.60
2017-06-08T07:51:47.641Z,14.70
2017-06-08T07:54:19.166Z,14.70
2017-06-08T07:56:50.706Z,14.70
2017-06-08T07:59:22.218Z,14.80
2017-06-08T08:02:05.909Z,14.90
2017-06-08T08:04:37.469Z,15.00
2017-06-08T08:07:08.973Z,15.00
2017-06-08T08:09:41.250Z,15.10
2017-06-08T08:12:12.756Z,15.10
2017-06-08T08:14:44.270Z,15.20
2017-06-08T08:17:16.617Z,15.20
2017-06-08T08:19:48.105Z,15.20
2017-06-08T08:22:19.606Z,15.30
2017-06-08T08:24:51.072Z,15.40
2017-06-08T08:27:23.378Z,15.60
2017-06-08T08:29:54.877Z,15.60
2017-06-08T08:32:26.430Z,15.60
2017-06-08T08:34:58.030Z,15.70
2017-06-08T08:37:29.591Z,15.80
2017-06-08T08:40:01.134Z,15.90
2017-06-08T08:42:32.678Z,16.00
2017-06-08T08:45:04.165Z,16.00
2017-06-08T08:47:35.718Z,16.10
2017-06-08T08:50:07.243Z,16.20
2017-06-08T08:52:38.801Z,16.30
2017-06-08T08:55:10.303Z,16.30
2017-06-08T08:57:41.821Z,16.30
2017-06-08T09:00:13.365Z,16.40
2017-06-08T09:02:44.861Z,16.50
2017-06-08T09:05:16.413Z,16.50
2017-06-08T09:07:47.909Z,16.70
2017-06-08T09:10:19.432Z,16.80
2017-06-08T09:12:51.092Z,16.90
2017-06-08T09:15:22.612Z,17.00
2017-06-08T09:17:54.384Z,17.00
2017-06-08T09:20:25.872Z,17.10
2017-06-08T09:22:58.189Z,17.20
2017-06-08T09:25:29.706Z,17.20
2017-06-08T09:28:01.262Z,17.30
2017-06-08T09:30:32.786Z,17.30
2017-06-08T09:33:04.369Z,17.30
2017-06-08T09:35:35.847Z,17.50
2017-06-08T09:38:07.378Z,17.50
2017-06-08T09:40:39.194Z,17.60
2017-06-08T09:43:10.712Z,17.70
2017-06-08T09:45:42.277Z,17.70
2017-06-08T09:48:13.822Z,17.80
2017-06-08T09:50:45.398Z,17.70
2017-06-08T09:53:16.926Z,17.80
2017-06-08T09:55:48.626Z,17.90
2017-06-08T09:58:20.881Z,18.10
2017-06-08T10:00:52.389Z,18.10
2017-06-08T10:03:23.876Z,18.10
2017-06-08T10:05:55.447Z,18.30
2017-06-08T10:08:26.939Z,18.40
2017-06-08T10:10:58.482Z,18.30
2017-06-08T10:13:25.658Z,18.50
2017-06-08T10:15:57.150Z,18.50
2017-06-08T10:18:29.481Z,18.70
2017-06-08T10:21:01.004Z,18.70
2017-06-08T10:23:32.606Z,18.80
2017-06-08T10:26:04.128Z,18.90
2017-06-08T10:28:35.687Z,19.00
2017-06-08T10:31:07.184Z,19.00
2017-06-08T10:33:38.699Z,19.00
2017-06-08T10:36:10.171Z,19.00
2017-06-08T10:38:41.726Z,19.00
2017-06-08T10:41:13.261Z,19.10
2017-06-08T10:43:44.765Z,19.20
2017-06-08T10:46:16.408Z,19.20
2017-06-08T10:48:48.642Z,19.30
2017-06-08T10:51:20.195Z,19.30
2017-06-08T10:53:51.846Z,19.40
2017-06-08T10:56:23.339Z,19.50
2017-06-08T10:58:55.720Z,19.50
2017-06-08T11:01:27.253Z,19.40
2017-06-08T11:03:59.829Z,19.60
2017-06-08T11:06:31.342Z,19.60
2017-06-08T11:09:02.916Z,19.80
2017-06-08T11:11:34.415Z,20.00
2017-06-08T11:14:05.964Z,20.10
2017-06-08T11:16:37.448Z,20.10
2017-06-08T11:19:09.177Z,20.30
2017-06-08T11:21:40.773Z,20.50
2017-06-08T11:24:12.372Z,20.50
2017-06-08T11:26:44.938Z,20.80
2017-06-08T11:29:16.469Z,20.80
2017-06-08T11:31:48.334Z,20.80
2017-06-08T11:34:19.870Z,20.90
2017-06-08T11:36:51.437Z,21.00
2017-06-08T11:39:23.032Z,21.20
2017-06-08T11:41:54.485Z,21.20
2017-06-08T11:44:26.030Z,21.30
2017-06-08T11:46:58.274Z,21.50
2017-06-08T11:49:29.806Z,21.40
2017-06-08T11:52:01.289Z,21.60
2017-06-08T11:54:33.551Z,21.70
2017-06-08T11:57:05.070Z,21.70
2017-06-08T11:59:36.597Z,21.80
2017-06-08T12:02:08.186Z,21.80
2017-06-08T12:04:39.700Z,21.80
2017-06-08T12:07:11.207Z,21.90
2017-06-08T12:09:42.697Z,22.00
2017-06-08T12:12:21.598Z,22.30
2017-06-08T12:14:53.862Z,22.50
2017-06-08T12:17:26.510Z,22.70
2017-06-08T12:19:58.197Z,22.60
2017-06-08T12:22:43.393Z,22.80
2017-06-08T12:25:14.977Z,22.80
2017-06-08T12:27:46.527Z,23.00
2017-06-08T12:30:18.057Z,23.00
2017-06-08T12:32:49.584Z,23.10
2017-06-08T12:35:21.836Z,23.40
2017-06-08T12:37:53.354Z,23.40
2017-06-08T12:40:24.922Z,23.60
2017-06-08T12:42:56.466Z,24.00
2017-06-08T12:45:27.970Z,24.10
2017-06-08T12:48:00.254Z,24.70
2017-06-08T12:50:31.731Z,24.70
2017-06-08T12:53:03.285Z,25.30
2017-06-08T12:55:34.770Z,25.30
2017-06-08T12:58:06.321Z,25.50
2017-06-08T13:00:37.826Z,25.90
2017-06-08T13:03:09.409Z,26.70
2017-06-08T13:05:40.888Z,27.20
2017-06-08T13:08:12.385Z,27.10
2017-06-08T13:10:43.922Z,27.40
2017-06-08T13:13:15.474Z,26.60
2017-06-08T13:15:47.011Z,26.60
2017-06-08T13:18:18.860Z,26.60
2017-06-08T13:20:57.374Z,26.50
2017-06-08T13:23:28.903Z,26.60
2017-06-08T13:26:00.417Z,26.80
2017-06-08T13:28:31.933Z,27.10
2017-06-08T13:31:03.556Z,27.00
2017-06-08T13:33:35.138Z,27.50
2017-06-08T13:36:06.686Z,28.10
2017-06-08T13:38:38.178Z,28.30
2017-06-08T13:41:09.765Z,28.80
2017-06-08T13:43:41.275Z,28.10
2017-06-08T13:46:12.862Z,27.90
2017-06-08T13:48:44.389Z,28.40
2017-06-08T13:51:15.934Z,28.70
2017-06-08T13:53:47.505Z,28.50
2017-06-08T13:56:19.012Z,29.30
2017-06-08T13:58:50.565Z,29.50
2017-06-08T14:01:22.047Z,29.50
2017-06-08T14:03:54.603Z,29.30
2017-06-08T14:06:26.805Z,27.80
2017-06-08T14:08:58.321Z,27.80
2017-06-08T14:11:29.830Z,27.70
2017-06-08T14:14:01.349Z,27.10
2017-06-08T14:16:33.558Z,28.30
2017-06-08T14:19:05.105Z,28.30
2017-06-08T14:21:36.603Z,28.80
2017-06-08T14:24:08.125Z,28.40
2017-06-08T14:26:39.606Z,28.00
2017-06-08T14:29:11.201Z,27.60
2017-06-08T14:31:43.469Z,27.80
2017-06-08T14:34:14.987Z,27.80
2017-06-08T14:36:47.375Z,27.30
2017-06-08T14:39:18.885Z,27.20
2017-06-08T14:41:50.412Z,27.00
2017-06-08T14:44:21.897Z,27.20
2017-06-08T14:46:53.526Z,26.70
2017-06-08T14:49:25.029Z,26.40
2017-06-08T14:51:57.269Z,27.20
2017-06-08T14:54:28.753Z,27.10
2017-06-08T14:57:00.326Z,27.30
2017-06-08T14:59:31.814Z,27.40
2017-06-08T15:02:03.417Z,27.10
2017-06-08T15:04:34.901Z,27.10
2017-06-08T15:07:06.442Z,26.90
2017-06-08T15:09:38.233Z,26.70
2017-06-08T15:12:09.829Z,27.50
2017-06-08T15:14:41.365Z,27.50
2017-06-08T15:17:12.858Z,27.20
2017-06-08T15:19:44.341Z,26.30
2017-06-08T15:22:15.878Z,26.90
2017-06-08T15:24:47.452Z,27.40
2017-06-08T15:27:18.921Z,27.80
2017-06-08T15:29:50.433Z,27.00
2017-06-08T15:32:21.949Z,26.30
2017-06-08T15:34:53.751Z,25.80
2017-06-08T15:37:25.249Z,25.60
2017-06-08T15:39:56.806Z,25.70
2017-06-08T15:42:29.085Z,25.80
2017-06-08T15:45:00.729Z,25.80
2017-06-08T15:47:32.961Z,25.80
2017-06-08T15:50:04.437Z,25.80
2017-06-08T15:52:35.881Z,25.90
2017-06-08T15:55:07.374Z,25.90
2017-06-08T15:57:38.849Z,25.00
2017-06-08T16:00:10.530Z,24.90
2017-06-08T16:02:42.049Z,24.50
2017-06-08T16:05:13.670Z,24.10
2017-06-08T16:07:52.374Z,24.30
2017-06-08T16:10:23.882Z,24.20
2017-06-08T16:12:55.411Z,23.80
2017-06-08T16:15:26.929Z,23.70
2017-06-08T16:17:58.469Z,23.80
2017-06-08T16:20:29.997Z,23.80
2017-06-08T16:23:01.513Z,23.80
2017-06-08T16:25:33.141Z,23.60
2017-06-08T16:30:43.182Z,23.30
2017-06-08T16:33:14.730Z,23.40
2017-06-08T16:35:46.297Z,23.20
2017-06-08T16:38:17.813Z,23.10
2017-06-08T16:40:49.463Z,23.00
2017-06-08T16:43:21.024Z,23.20
2017-06-08T16:45:52.542Z,23.20
2017-06-08T16:48:24.003Z,23.10
2017-06-08T16:50:56.290Z,23.00
2017-06-08T16:53:27.865Z,23.00
2017-06-08T16:55:59.469Z,22.80
2017-06-08T16:58:30.988Z,22.60
2017-06-08T17:01:02.530Z,22.60
2017-06-08T17:03:34.052Z,22.50
2017-06-08T17:06:05.605Z,22.70
2017-06-08T17:08:37.150Z,22.80
2017-06-08T17:11:08.674Z,22.60
2017-06-08T17:13:41.017Z,22.40
2017-06-08T17:16:12.504Z,22.40
2017-06-08T17:18:44.817Z,22.30
2017-06-08T17:21:16.309Z,22.30
2017-06-08T17:23:47.916Z,22.20
2017-06-08T17:26:19.406Z,22.10
2017-06-08T17:28:51.042Z,22.00
2017-06-08T17:31:22.622Z,21.90
2017-06-08T17:33:54.154Z,21.90
2017-06-08T17:36:25.646Z,21.90
2017-06-08T17:38:58.026Z,21.80
2017-06-08T17:41:30.275Z,21.90
2017-06-08T17:44:01.955Z,21.90
2017-06-08T17:46:33.465Z,22.00
2017-06-08T17:49:05.002Z,22.00
2017-06-08T17:51:36.496Z,21.90
2017-06-08T17:54:08.860Z,21.60
2017-06-08T17:56:40.337Z,21.60
2017-06-08T17:59:12.597Z,21.40
2017-06-08T18:01:51.770Z,21.40
2017-06-08T18:04:23.694Z,21.40
2017-06-08T18:06:55.279Z,21.20
2017-06-08T18:09:26.817Z,21.00
2017-06-08T18:11:58.300Z,21.00
2017-06-08T18:14:29.854Z,20.90
2017-06-08T18:17:01.340Z,20.90
2017-06-08T18:19:32.875Z,20.80
2017-06-08T18:22:04.430Z,20.70
2017-06-08T18:24:35.967Z,20.50
2017-06-08T18:27:07.538Z,20.50
2017-06-08T18:29:39.078Z,20.50
2017-06-08T18:32:10.631Z,20.40
2017-06-08T18:34:42.166Z,20.40
2017-06-08T18:37:13.725Z,20.40
2017-06-08T18:39:40.158Z,20.50
2017-06-08T18:42:11.630Z,20.60
2017-06-08T18:44:43.241Z,20.50
2017-06-08T18:47:14.750Z,20.50
2017-06-08T18:49:46.301Z,20.40
2017-06-08T18:52:17.761Z,20.30
2017-06-08T18:54:49.605Z,20.30
2017-06-08T18:57:21.128Z,20.10
2017-06-08T18:59:52.829Z,19.80
2017-06-08T19:02:25.134Z,19.80
2017-06-08T19:04:56.788Z,19.80
2017-06-08T19:07:28.316Z,19.70
2017-06-08T19:10:00.593Z,19.50
2017-06-08T19:12:32.894Z,19.50
2017-06-08T19:15:04.423Z,19.40
2017-06-08T19:17:36.113Z,19.40
2017-06-08T19:20:07.633Z,19.20
2017-06-08T19:22:39.148Z,19.10
2017-06-08T19:25:10.617Z,18.90
2017-06-08T19:27:42.409Z,18.90
2017-06-08T19:30:13.957Z,18.70
2017-06-08T19:32:45.702Z,18.70
2017-06-08T19:35:17.249Z,18.60
2017-06-08T19:37:49.535Z,18.30
2017-06-08T19:40:21.054Z,18.30
2017-06-08T19:42:52.794Z,18.30
2017-06-08T19:45:24.336Z,18.30
2017-06-08T19:47:55.949Z,18.20
2017-06-08T19:50:27.477Z,17.90
2017-06-08T19:52:59.823Z,17.90
2017-06-08T19:55:31.337Z,17.80
2017-06-08T19:58:02.881Z,17.80
2017-06-08T20:00:34.423Z,17.70
2017-06-08T20:03:06.139Z,17.70
2017-06-08T20:05:37.655Z,17.70
2017-06-08T20:08:09.253Z,17.70
2017-06-08T20:10:40.777Z,17.60
2017-06-08T20:13:12.371Z,17.60
2017-06-08T20:15:50.869Z,17.40
2017-06-08T20:18:22.437Z,17.40
2017-06-08T20:20:54.682Z,17.30
2017-06-08T20:23:26.255Z,17.30
2017-06-08T20:25:52.746Z,17.20
2017-06-08T20:28:24.246Z,17.10
2017-06-08T20:30:55.821Z,16.90
2017-06-08T20:33:27.389Z,16.90
2017-06-08T20:35:58.937Z,16.80
2017-06-08T20:38:30.445Z,16.80
2017-06-08T20:41:02.018Z,16.80
2017-06-08T20:43:34.346Z,16.70
2017-06-08T20:46:06.270Z,16.70
2017-06-08T20:48:37.822Z,16.70
2017-06-08T20:51:10.298Z,16.40
2017-06-08T20:53:42.577Z,16.40
2017-06-08T20:56:14.250Z,16.40
2017-06-08T20:58:45.782Z,16.40
2017-06-08T21:01:17.338Z,16.30
2017-06-08T21:03:48.924Z,16.30
2017-06-08T21:06:20.466Z,16.30
2017-06-08T21:08:52.005Z,16.20
2017-06-08T21:11:23.490Z,16.10
2017-06-08T21:13:55.017Z,16.00
2017-06-08T21:16:26.506Z,15.90
2017-06-08T21:18:58.049Z,15.90
2017-06-08T21:21:36.535Z,15.90
2017-06-08T21:24:08.104Z,15.80
2017-06-08T21:26:39.677Z,15.70
2017-06-08T21:29:11.236Z,15.70
2017-06-08T21:31:42.713Z,15.70
2017-06-08T21:34:15.024Z,15.60
2017-06-08T21:36:46.549Z,15.60
2017-06-08T21:39:18.105Z,15.60
2017-06-08T21:41:49.648Z,15.60
2017-06-08T21:44:21.942Z,15.50
2017-06-08T21:46:53.489Z,15.50
2017-06-08T21:49:25.024Z,15.40
2017-06-08T21:51:56.589Z,15.40
2017-06-08T21:54:28.176Z,15.30
2017-06-08T21:56:59.822Z,15.20
2017-06-08T21:59:31.312Z,15.20
2017-06-08T22:02:02.827Z,15.20
2017-06-08T22:04:44.893Z,15.10
2017-06-08T22:07:17.153Z,15.00
2017-06-08T22:09:48.624Z,15.00
2017-06-08T22:12:20.273Z,15.00
2017-06-08T22:14:51.785Z,15.00
2017-06-08T22:17:30.370Z,15.00
2017-06-08T22:20:01.906Z,15.00
2017-06-08T22:22:33.446Z,14.70
2017-06-08T22:25:04.969Z,14.70
2017-06-08T22:27:36.626Z,14.70
2017-06-08T22:30:08.151Z,14.80
2017-06-08T22:32:39.718Z,14.80
2017-06-08T22:35:11.181Z,14.60
2017-06-08T22:37:42.714Z,14.60
2017-06-08T22:40:14.238Z,14.70
2017-06-08T22:42:45.834Z,14.70
2017-06-08T22:45:17.296Z,14.70
2017-06-08T22:47:48.829Z,14.40
2017-06-08T22:50:20.369Z,14.40
2017-06-08T22:52:51.953Z,14.50
2017-06-08T22:55:23.439Z,14.50
2017-06-08T22:57:55.009Z,14.50
2017-06-08T23:00:26.529Z,14.50
2017-06-08T23:02:58.848Z,14.50
2017-06-08T23:05:30.336Z,14.50
2017-06-08T23:08:01.949Z,14.40
2017-06-08T23:10:33.455Z,14.50
2017-06-08T23:13:05.777Z,14.40
2017-06-08T23:15:37.265Z,14.40
2017-06-08T23:18:08.814Z,14.30
2017-06-08T23:20:40.314Z,14.30
2017-06-08T23:23:11.921Z,14.40
2017-06-08T23:25:43.426Z,14.40
2017-06-08T23:28:15.193Z,14.50
2017-06-08T23:30:46.713Z,14.50
2017-06-08T23:33:18.285Z,14.50
2017-06-08T23:35:49.765Z,14.50
2017-06-08T23:38:21.314Z,14.50
2017-06-08T23:40:52.821Z,14.40
2017-06-08T23:43:24.545Z,14.40
2017-06-08T23:45:56.054Z,14.40
2017-06-08T23:48:27.723Z,14.40
2017-06-08T23:50:59.281Z,14.50
2017-06-08T23:53:30.849Z,14.50
2017-06-08T23:56:02.325Z,14.40
2017-06-08T23:58:33.836Z,14.30
